Time;durP1;ratioP1;P1;durP2;ratioP2;P2;SDS_P1;SDS_P2;PMS_P1;PMS_P2;Temp;Humidity;BMP_temperature;BMP_pressure;BME280_temperature;BME280_humidity;BME280_pressure;Samples;Min_cycle;Max_cycle;Signal;HPM_P1;HPM_P2
2022/04/25 00:00:00;;;;;;;15.82;7.47;;;;;;;;;;5027958;28;20060;-79
2022/04/25 00:02:26;;;;;;;12.25;6.90;;;;;;;;;;5030691;28;20037;-78
2022/04/25 00:04:52;;;;;;;16.00;7.22;;;;;;;;;;5031129;28;20131;-78
2022/04/25 00:07:19;;;;;;;15.10;7.57;;;;;;;;;;5021341;28;20032;-79
2022/04/25 00:09:45;;;;;;;13.63;7.70;;;;;;;;;;5030738;28;20080;-78
2022/04/25 00:12:11;;;;;;;20.10;7.32;;;;;;;;;;5029568;28;20030;-78
2022/04/25 00:14:37;;;;;;;14.93;7.85;;;;;;;;;;5029819;28;20441;-79
2022/04/25 00:17:03;;;;;;;12.63;6.28;;;;;;;;;;5030070;28;20022;-79
2022/04/25 00:19:30;;;;;;;12.90;7.03;;;;;;;;;;5031657;28;20112;-79
2022/04/25 00:21:56;;;;;;;15.18;7.68;;;;;;;;;;5028810;28;20033;-80
2022/04/25 00:24:22;;;;;;;15.48;7.80;;;;;;;;;;5032166;28;20392;-79
2022/04/25 00:26:48;;;;;;;18.75;7.68;;;;;;;;;;5029695;28;20069;-79
2022/04/25 00:29:14;;;;;;;17.95;6.80;;;;;;;;;;5031585;28;20061;-78
2022/04/25 00:31:40;;;;;;;12.98;7.13;;;;;;;;;;5011120;28;21014;-78
2022/04/25 00:34:07;;;;;;;16.83;7.10;;;;;;;;;;5033754;28;20109;-79
2022/04/25 00:36:33;;;;;;;13.02;6.80;;;;;;;;;;5050312;28;20110;-79
2022/04/25 00:38:59;;;;;;;15.98;7.55;;;;;;;;;;5035512;28;20021;-79
2022/04/25 00:41:25;;;;;;;14.20;6.60;;;;;;;;;;5041304;28;20068;-80
2022/04/25 00:43:55;;;;;;;15.93;7.10;;;;;;;;;;5050383;28;20041;-80
2022/04/25 00:46:21;;;;;;;10.55;6.35;;;;;;;;;;5037517;28;20029;-79
2022/04/25 00:48:47;;;;;;;10.82;6.80;;;;;;;;;;5034837;28;20038;-79
2022/04/25 00:51:14;;;;;;;20.00;7.85;;;;;;;;;;5035375;28;20021;-79
2022/04/25 00:53:40;;;;;;;17.77;8.07;;;;;;;;;;5034610;28;20033;-80
2022/04/25 00:56:06;;;;;;;13.60;7.07;;;;;;;;;;5030492;28;20542;-79
2022/04/25 00:58:32;;;;;;;12.25;7.40;;;;;;;;;;5033147;28;20457;-79
2022/04/25 01:00:58;;;;;;;15.40;6.68;;;;;;;;;;5035541;28;20053;-78
2022/04/25 01:03:24;;;;;;;14.45;7.30;;;;;;;;;;5033328;28;20021;-83
2022/04/25 01:05:50;;;;;;;17.10;7.38;;;;;;;;;;5033624;28;20037;-79
2022/04/25 01:08:17;;;;;;;10.77;7.60;;;;;;;;;;5033166;28;20037;-78
2022/04/25 01:10:43;;;;;;;17.63;7.20;;;;;;;;;;5049609;28;20036;-79
2022/04/25 01:13:11;;;;;;;14.50;7.43;;;;;;;;;;5033486;28;20542;-79
2022/04/25 01:15:37;;;;;;;12.23;7.70;;;;;;;;;;5034170;28;20029;-78
2022/04/25 01:18:03;;;;;;;14.27;7.43;;;;;;;;;;5015440;28;20033;-79
2022/04/25 01:20:30;;;;;;;11.55;7.35;;;;;;;;;;5033104;28;20116;-79
2022/04/25 01:28:34;;;;;;;20.02;8.45;;;;;;;;;;5033089;28;20029;-76
2022/04/25 01:31:00;;;;;;;13.63;7.78;;;;;;;;;;5033082;28;20030;-78
2022/04/25 01:33:26;;;;;;;15.20;8.75;;;;;;;;;;5024540;28;20029;-79
2022/04/25 01:35:52;;;;;;;35.90;18.05;;;;;;;;;;5026879;28;20037;-76
2022/04/25 01:38:18;;;;;;;19.38;10.65;;;;;;;;;;5033589;28;20030;-76
2022/04/25 01:40:44;;;;;;;15.82;8.35;;;;;;;;;;5034343;28;20116;-79
2022/04/25 01:43:10;;;;;;;18.55;8.63;;;;;;;;;;5032847;28;20033;-78
2022/04/25 01:45:37;;;;;;;18.38;9.50;;;;;;;;;;5031504;28;21569;-78
2022/04/25 01:48:03;;;;;;;16.80;8.60;;;;;;;;;;5044195;28;20034;-78
2022/04/25 01:50:29;;;;;;;14.77;9.18;;;;;;;;;;5031240;28;20076;-79
2022/04/25 01:52:55;;;;;;;14.75;8.73;;;;;;;;;;5031180;28;20106;-78
2022/04/25 01:55:21;;;;;;;16.27;9.45;;;;;;;;;;5030648;28;20397;-78
2022/04/25 01:57:47;;;;;;;13.93;8.40;;;;;;;;;;5031823;28;20068;-78
2022/04/25 02:00:13;;;;;;;16.15;9.75;;;;;;;;;;5033192;28;20028;-78
2022/04/25 02:02:39;;;;;;;17.95;8.73;;;;;;;;;;5033810;28;20477;-78
2022/04/25 02:05:06;;;;;;;15.75;8.60;;;;;;;;;;5032127;28;20087;-78
2022/04/25 02:07:32;;;;;;;13.93;7.65;;;;;;;;;;5020351;28;20025;-78
2022/04/25 02:09:58;;;;;;;15.60;8.27;;;;;;;;;;5027541;28;20034;-78
2022/04/25 02:12:25;;;;;;;20.10;8.82;;;;;;;;;;5033560;28;20470;-78
2022/04/25 02:14:51;;;;;;;11.95;7.72;;;;;;;;;;5031088;28;20025;-78
2022/04/25 02:17:17;;;;;;;20.50;7.95;;;;;;;;;;5029470;28;20041;-78
2022/04/25 02:19:44;;;;;;;15.55;9.57;;;;;;;;;;5032355;28;20440;-78
2022/04/25 02:22:11;;;;;;;10.88;7.35;;;;;;;;;;5033210;28;20030;-78
2022/04/25 02:24:37;;;;;;;16.98;8.13;;;;;;;;;;5029177;28;20041;-78
2022/04/25 02:27:04;;;;;;;13.70;7.72;;;;;;;;;;5029370;28;20445;-79
2022/04/25 02:29:34;;;;;;;11.65;7.50;;;;;;;;;;5032277;28;20380;-78
2022/04/25 02:32:01;;;;;;;14.90;7.53;;;;;;;;;;5032544;28;20052;-78
2022/04/25 02:34:34;;;;;;;16.02;7.50;;;;;;;;;;5030245;28;20064;-78
2022/04/25 02:37:00;;;;;;;15.95;7.25;;;;;;;;;;5031960;28;20061;-77
2022/04/25 02:39:26;;;;;;;17.48;6.90;;;;;;;;;;5013266;28;20033;-78
2022/04/25 02:41:52;;;;;;;11.45;7.35;;;;;;;;;;5032281;28;20036;-77
2022/04/25 02:44:20;;;;;;;16.05;7.28;;;;;;;;;;5012241;28;20037;-78
2022/04/25 02:46:46;;;;;;;12.32;6.97;;;;;;;;;;5032680;28;20061;-78
2022/04/25 02:49:12;;;;;;;17.00;7.95;;;;;;;;;;5030644;28;20091;-78
2022/04/25 02:51:38;;;;;;;14.52;7.57;;;;;;;;;;5031910;28;20034;-78
2022/04/25 02:54:04;;;;;;;16.17;7.22;;;;;;;;;;5022399;28;20111;-78
2022/04/25 02:56:31;;;;;;;12.70;6.97;;;;;;;;;;5031412;28;20037;-77
2022/04/25 02:58:57;;;;;;;20.35;6.85;;;;;;;;;;5032639;28;20029;-77
2022/04/25 03:01:23;;;;;;;16.50;7.63;;;;;;;;;;5030010;28;20048;-79
2022/04/25 03:03:49;;;;;;;13.82;6.70;;;;;;;;;;5030441;28;20057;-76
2022/04/25 03:06:15;;;;;;;11.65;7.38;;;;;;;;;;5031385;28;20473;-76
2022/04/25 03:08:41;;;;;;;13.45;7.35;;;;;;;;;;5032426;28;20413;-79
2022/04/25 03:11:08;;;;;;;16.48;7.57;;;;;;;;;;5030915;28;20033;-76
2022/04/25 03:13:34;;;;;;;15.32;7.55;;;;;;;;;;5012850;28;20053;-76
2022/04/25 03:16:01;;;;;;;15.20;6.93;;;;;;;;;;5030008;28;20040;-77
2022/04/25 03:18:29;;;;;;;18.38;7.90;;;;;;;;;;5030636;28;20038;-79
2022/04/25 03:20:55;;;;;;;14.40;7.50;;;;;;;;;;5028013;28;20032;-78
2022/04/25 03:23:23;;;;;;;12.68;7.35;;;;;;;;;;5031360;28;20576;-78
2022/04/25 03:25:50;;;;;;;13.75;7.45;;;;;;;;;;5029717;28;20063;-78
2022/04/25 03:28:16;;;;;;;16.73;7.72;;;;;;;;;;5014855;28;20038;-78
2022/04/25 03:30:43;;;;;;;14.82;7.68;;;;;;;;;;5007212;28;20030;-78
2022/04/25 03:33:12;;;;;;;16.02;7.82;;;;;;;;;;5005775;28;20110;-78
2022/04/25 03:35:41;;;;;;;16.23;7.93;;;;;;;;;;5010368;28;20032;-78
2022/04/25 03:38:08;;;;;;;17.15;7.63;;;;;;;;;;4997763;28;20049;-79
2022/04/25 03:40:37;;;;;;;17.27;8.90;;;;;;;;;;4974054;28;20029;-77
2022/04/25 03:43:09;;;;;;;12.90;8.05;;;;;;;;;;5012755;28;20068;-78
2022/04/25 03:45:35;;;;;;;11.50;6.47;;;;;;;;;;5000483;28;20037;-78
2022/04/25 03:48:02;;;;;;;13.00;7.85;;;;;;;;;;5012704;28;20084;-78
2022/04/25 03:50:28;;;;;;;16.73;7.40;;;;;;;;;;4999130;28;20034;-77
2022/04/25 03:52:54;;;;;;;13.45;7.32;;;;;;;;;;5032199;28;20040;-78
2022/04/25 03:58:05;;;;;;;17.95;8.23;;;;;;;;;;4994040;28;20042;-77
2022/04/25 04:00:32;;;;;;;16.90;7.03;;;;;;;;;;5008641;28;20025;-77
2022/04/25 04:02:59;;;;;;;14.20;7.45;;;;;;;;;;5008871;28;20030;-77
2022/04/25 04:05:25;;;;;;;12.10;7.35;;;;;;;;;;5008752;28;20034;-78
2022/04/25 04:07:52;;;;;;;12.82;6.55;;;;;;;;;;5010529;28;20397;-78
2022/04/25 04:10:19;;;;;;;15.80;7.03;;;;;;;;;;4993457;28;20478;-80
2022/04/25 04:12:46;;;;;;;14.07;7.32;;;;;;;;;;5009659;28;20029;-77
2022/04/25 04:15:13;;;;;;;14.32;6.53;;;;;;;;;;4978062;28;20030;-78
2022/04/25 04:17:39;;;;;;;11.60;6.78;;;;;;;;;;5010855;28;20049;-78
2022/04/25 04:20:06;;;;;;;11.80;7.15;;;;;;;;;;5012075;28;20466;-77
2022/04/25 04:22:32;;;;;;;12.27;7.20;;;;;;;;;;4989807;28;20064;-78
2022/04/25 04:25:02;;;;;;;10.82;6.40;;;;;;;;;;5011774;28;20034;-78
2022/04/25 04:27:31;;;;;;;12.35;7.22;;;;;;;;;;5022509;28;20108;-77
2022/04/25 04:29:57;;;;;;;10.70;6.55;;;;;;;;;;5026824;28;20032;-77
2022/04/25 04:32:26;;;;;;;12.60;6.55;;;;;;;;;;5008469;28;20029;-77
2022/04/25 04:34:52;;;;;;;12.65;6.35;;;;;;;;;;5028344;28;20071;-77
2022/04/25 04:37:18;;;;;;;13.10;7.00;;;;;;;;;;5031966;28;20040;-78
2022/04/25 04:39:44;;;;;;;11.88;6.50;;;;;;;;;;5031667;28;20037;-78
2022/04/25 04:42:10;;;;;;;10.25;6.38;;;;;;;;;;5030169;28;20033;-77
2022/04/25 04:44:36;;;;;;;12.65;6.10;;;;;;;;;;5029741;28;20036;-77
2022/04/25 04:47:03;;;;;;;11.43;6.43;;;;;;;;;;5029252;28;20520;-78
2022/04/25 04:49:29;;;;;;;15.35;6.45;;;;;;;;;;5023834;28;20025;-78
2022/04/25 04:51:55;;;;;;;14.20;6.72;;;;;;;;;;5026110;28;20053;-78
2022/04/25 04:54:21;;;;;;;12.32;6.60;;;;;;;;;;5028651;28;20045;-77
2022/04/25 04:56:48;;;;;;;10.77;6.13;;;;;;;;;;5027252;28;20033;-77
2022/04/25 04:59:14;;;;;;;16.85;6.32;;;;;;;;;;5030022;28;20026;-77
2022/04/25 05:01:40;;;;;;;12.95;6.65;;;;;;;;;;5028587;28;20044;-80
2022/04/25 05:04:06;;;;;;;10.32;6.45;;;;;;;;;;5029692;28;20497;-77
2022/04/25 05:06:33;;;;;;;14.32;7.18;;;;;;;;;;5029736;28;20041;-78
2022/04/25 05:08:59;;;;;;;11.45;6.55;;;;;;;;;;5030989;28;20029;-79
2022/04/25 05:11:29;;;;;;;10.13;6.82;;;;;;;;;;5028998;28;20033;-78
2022/04/25 05:13:55;;;;;;;13.05;6.72;;;;;;;;;;5029785;28;20040;-78
2022/04/25 05:16:21;;;;;;;11.70;7.10;;;;;;;;;;5012170;28;20026;-78
2022/04/25 05:18:47;;;;;;;15.25;7.32;;;;;;;;;;5028555;28;20033;-78
2022/04/25 05:21:13;;;;;;;15.63;7.65;;;;;;;;;;5030322;28;20026;-78
2022/04/25 05:23:40;;;;;;;16.80;6.78;;;;;;;;;;5030652;28;20108;-80
2022/04/25 05:26:07;;;;;;;12.07;7.22;;;;;;;;;;5033600;28;20057;-78
2022/04/25 05:28:33;;;;;;;17.58;8.55;;;;;;;;;;5004265;28;20057;-78
2022/04/25 05:30:59;;;;;;;11.70;7.80;;;;;;;;;;5000658;28;20026;-78
2022/04/25 05:33:26;;;;;;;11.40;6.90;;;;;;;;;;5010629;28;20030;-78
2022/04/25 05:35:52;;;;;;;16.23;8.07;;;;;;;;;;5010733;28;20103;-77
2022/04/25 05:38:18;;;;;;;12.27;7.22;;;;;;;;;;5013645;28;20113;-77
2022/04/25 05:40:45;;;;;;;14.32;6.55;;;;;;;;;;5006367;28;20105;-77
2022/04/25 05:43:11;;;;;;;13.52;6.97;;;;;;;;;;5011000;28;20041;-77
2022/04/25 05:45:37;;;;;;;13.38;7.68;;;;;;;;;;5008450;28;20077;-77
2022/04/25 05:51:58;;;;;;;15.30;7.13;;;;;;;;;;5010139;28;20382;-76
2022/04/25 05:53:36;;;;;;;13.55;7.50;;;;;;;;;;5006070;28;20589;-77
2022/04/25 05:56:03;;;;;;;15.85;7.15;;;;;;;;;;5022773;28;20034;-78
2022/04/25 05:58:29;;;;;;;15.50;8.13;;;;;;;;;;5011894;28;20037;-78
2022/04/25 06:00:55;;;;;;;11.27;7.15;;;;;;;;;;5029197;28;20037;-78
2022/04/25 06:03:21;;;;;;;18.42;7.32;;;;;;;;;;5025677;28;20062;-79
2022/04/25 06:05:47;;;;;;;26.45;10.35;;;;;;;;;;4989197;28;20042;-76
2022/04/25 06:08:13;;;;;;;18.40;10.05;;;;;;;;;;5012890;28;20030;-75
2022/04/25 06:10:40;;;;;;;14.18;7.72;;;;;;;;;;5011669;28;20497;-79
2022/04/25 06:13:07;;;;;;;15.82;6.70;;;;;;;;;;5007430;28;20030;-77
2022/04/25 06:15:33;;;;;;;15.60;7.85;;;;;;;;;;5004637;28;20133;-78
2022/04/25 06:17:59;;;;;;;10.82;7.40;;;;;;;;;;5008687;28;20466;-78
2022/04/25 06:20:30;;;;;;;12.20;7.28;;;;;;;;;;5011920;28;20030;-79
2022/04/25 06:22:58;;;;;;;11.43;6.40;;;;;;;;;;5011265;28;20061;-77
2022/04/25 06:25:26;;;;;;;13.75;7.90;;;;;;;;;;5024717;28;20034;-79
2022/04/25 06:27:52;;;;;;;11.52;7.13;;;;;;;;;;5024346;28;20121;-77
2022/04/25 06:30:23;;;;;;;13.00;7.32;;;;;;;;;;5030412;28;20033;-79
2022/04/25 06:32:49;;;;;;;14.02;7.15;;;;;;;;;;5028040;28;20037;-80
2022/04/25 06:35:15;;;;;;;17.15;8.70;;;;;;;;;;5006351;28;20109;-77
2022/04/25 06:37:42;;;;;;;15.10;7.57;;;;;;;;;;5025012;28;20033;-77
2022/04/25 06:40:08;;;;;;;12.98;7.05;;;;;;;;;;5033628;28;20053;-79
2022/04/25 06:42:34;;;;;;;11.23;6.68;;;;;;;;;;5037417;28;20465;-77
2022/04/25 06:45:00;;;;;;;13.07;7.43;;;;;;;;;;5036539;28;20029;-77
2022/04/25 06:47:26;;;;;;;11.40;6.63;;;;;;;;;;5032725;28;20041;-77
2022/04/25 06:49:54;;;;;;;9.35;6.07;;;;;;;;;;5028981;28;20766;-79
2022/04/25 06:52:20;;;;;;;15.57;6.85;;;;;;;;;;5018238;28;20104;-79
2022/04/25 06:54:47;;;;;;;13.82;6.63;;;;;;;;;;5030461;28;20090;-76
2022/04/25 06:57:13;;;;;;;14.88;7.18;;;;;;;;;;5008302;28;20098;-76
2022/04/25 06:59:39;;;;;;;10.48;6.70;;;;;;;;;;5028521;28;20022;-76
2022/04/25 07:02:05;;;;;;;15.63;8.52;;;;;;;;;;5021234;28;20045;-77
2022/04/25 07:04:31;;;;;;;16.95;6.78;;;;;;;;;;5032177;28;20037;-80
2022/04/25 07:06:57;;;;;;;18.02;9.95;;;;;;;;;;5031135;28;20083;-76
2022/04/25 07:09:23;;;;;;;28.40;14.98;;;;;;;;;;5032150;28;20053;-75
2022/04/25 07:11:49;;;;;;;10.23;6.22;;;;;;;;;;5022710;28;20031;-77
2022/04/25 07:14:19;;;;;;;11.88;7.07;;;;;;;;;;5019745;28;20030;-76
2022/04/25 07:16:48;;;;;;;14.52;8.63;;;;;;;;;;5024115;28;20026;-76
2022/04/25 07:19:18;;;;;;;10.05;6.90;;;;;;;;;;5028452;28;20079;-76
2022/04/25 07:29:58;;;;;;;14.43;6.60;;;;;;;;;;5010369;28;20045;-76
2022/04/25 07:32:24;;;;;;;12.52;7.05;;;;;;;;;;5010327;28;20061;-75
2022/04/25 07:34:50;;;;;;;13.15;6.72;;;;;;;;;;5011374;28;20060;-76
2022/04/25 07:37:18;;;;;;;8.85;6.22;;;;;;;;;;5006776;28;20026;-74
2022/04/25 07:39:45;;;;;;;12.57;6.70;;;;;;;;;;5008149;28;20034;-76
2022/04/25 07:42:12;;;;;;;18.70;10.32;;;;;;;;;;5001457;28;20026;-79
2022/04/25 07:44:38;;;;;;;32.33;16.63;;;;;;;;;;4994313;28;20042;-76
2022/04/25 07:47:05;;;;;;;14.25;6.93;;;;;;;;;;4976508;28;20096;-76
2022/04/25 07:49:33;;;;;;;19.48;8.23;;;;;;;;;;5007335;28;20033;-76
2022/04/25 07:52:00;;;;;;;14.38;6.78;;;;;;;;;;5008489;28;20593;-76
2022/04/25 07:54:26;;;;;;;11.77;7.38;;;;;;;;;;5001961;28;20069;-76
2022/04/25 07:56:52;;;;;;;14.90;7.03;;;;;;;;;;5007280;28;20026;-78
2022/04/25 07:59:19;;;;;;;12.77;7.03;;;;;;;;;;5011869;28;20042;-77
2022/04/25 08:01:45;;;;;;;12.05;7.30;;;;;;;;;;5008956;28;20033;-77
2022/04/25 08:04:12;;;;;;;22.98;12.50;;;;;;;;;;5013707;28;20038;-75
2022/04/25 08:06:38;;;;;;;26.83;14.85;;;;;;;;;;5010892;28;20165;-77
2022/04/25 08:09:05;;;;;;;17.08;7.45;;;;;;;;;;5008297;28;20479;-78
2022/04/25 08:11:31;;;;;;;13.70;7.63;;;;;;;;;;5011866;28;20038;-78
2022/04/25 08:19:29;;;;;;;11.40;6.43;;;;;;;;;;5007831;28;20105;-77
2022/04/25 08:21:55;;;;;;;11.15;7.95;;;;;;;;;;5009567;28;20041;-79
2022/04/25 08:24:21;;;;;;;28.02;13.73;;;;;;;;;;5005247;28;20042;-75
2022/04/25 08:26:47;;;;;;;25.60;13.32;;;;;;;;;;5017546;28;21957;-77
2022/04/25 08:29:13;;;;;;;13.90;6.85;;;;;;;;;;5030656;28;20056;-76
2022/04/25 08:31:39;;;;;;;10.70;6.97;;;;;;;;;;5038755;28;20076;-78
2022/04/25 08:34:06;;;;;;;16.30;7.13;;;;;;;;;;5010622;28;20467;-79
2022/04/25 08:36:32;;;;;;;11.45;7.13;;;;;;;;;;5011836;28;20026;-78
2022/04/25 08:38:59;;;;;;;12.65;6.70;;;;;;;;;;5029369;28;20034;-79
2022/04/25 08:41:30;;;;;;;13.48;6.93;;;;;;;;;;5030261;28;20490;-78
2022/04/25 08:43:57;;;;;;;10.27;6.45;;;;;;;;;;5032086;28;20026;-79
2022/04/25 08:46:23;;;;;;;16.42;7.38;;;;;;;;;;5045397;28;20442;-81
2022/04/25 08:48:52;;;;;;;12.13;7.70;;;;;;;;;;5028194;28;20034;-77
2022/04/25 08:51:20;;;;;;;10.48;7.13;;;;;;;;;;5026154;28;20038;-79
2022/04/25 08:53:46;;;;;;;15.43;7.50;;;;;;;;;;5003220;28;20057;-82
2022/04/25 08:56:14;;;;;;;19.33;11.82;;;;;;;;;;5021809;28;20033;-79
2022/04/25 08:58:41;;;;;;;18.08;8.40;;;;;;;;;;5033275;28;20033;-80
2022/04/25 09:01:07;;;;;;;13.60;7.50;;;;;;;;;;5031021;28;20030;-80
2022/04/25 09:03:33;;;;;;;10.80;6.85;;;;;;;;;;5019011;28;20394;-80
2022/04/25 09:05:59;;;;;;;11.57;6.60;;;;;;;;;;5031465;28;20033;-81
2022/04/25 09:08:25;;;;;;;11.20;5.68;;;;;;;;;;5030333;28;20131;-83
2022/04/25 09:12:09;;;;;;;14.93;7.43;;;;;;;;;;5010633;28;20032;-81
2022/04/25 09:13:37;;;;;;;13.43;5.75;;;;;;;;;;5019688;28;20061;-82
2022/04/25 09:16:05;;;;;;;10.27;5.40;;;;;;;;;;5027656;28;20045;-79
2022/04/25 09:18:32;;;;;;;16.30;6.25;;;;;;;;;;5029248;28;20112;-79
2022/04/25 09:20:58;;;;;;;14.30;5.60;;;;;;;;;;5036300;28;20041;-80
2022/04/25 09:23:24;;;;;;;10.45;4.75;;;;;;;;;;5044798;28;20029;-80
2022/04/25 09:26:14;;;;;;;8.07;4.40;;;;;;;;;;5038032;28;20068;-83
2022/04/25 09:28:47;;;;;;;10.15;5.22;;;;;;;;;;5038269;28;20114;-80
2022/04/25 09:31:14;;;;;;;10.00;4.90;;;;;;;;;;5038589;28;20176;-79
2022/04/25 09:33:40;;;;;;;20.75;6.70;;;;;;;;;;5033304;28;20504;-80
2022/04/25 09:36:06;;;;;;;12.98;6.60;;;;;;;;;;5035565;28;20419;-84
2022/04/25 09:38:33;;;;;;;11.55;6.40;;;;;;;;;;5018692;28;20034;-80
2022/04/25 09:41:00;;;;;;;11.50;6.30;;;;;;;;;;5044208;28;20037;-80
2022/04/25 09:43:30;;;;;;;9.95;6.10;;;;;;;;;;5060912;28;20060;-80
2022/04/25 09:46:00;;;;;;;10.10;5.75;;;;;;;;;;5020868;28;20041;-84
2022/04/25 09:48:26;;;;;;;11.40;5.97;;;;;;;;;;5033396;28;20028;-79
2022/04/25 09:50:59;;;;;;;13.20;5.47;;;;;;;;;;5007143;28;20053;-78
2022/04/25 09:53:40;;;;;;;12.75;5.32;;;;;;;;;;5023924;28;20107;-77
2022/04/25 09:56:16;;;;;;;13.05;5.35;;;;;;;;;;5029801;28;20461;-78
2022/04/25 09:58:43;;;;;;;11.35;5.55;;;;;;;;;;5026528;28;20037;-78
2022/04/25 10:01:13;;;;;;;8.60;4.68;;;;;;;;;;5030678;28;20038;-79
2022/04/25 10:03:40;;;;;;;9.80;5.15;;;;;;;;;;5030370;28;20109;-80
2022/04/25 10:06:07;;;;;;;10.10;4.97;;;;;;;;;;5032879;28;20466;-79
2022/04/25 10:08:35;;;;;;;10.63;4.47;;;;;;;;;;5005647;28;20351;-78
2022/04/25 10:11:05;;;;;;;9.05;5.35;;;;;;;;;;5011489;28;20489;-78
2022/04/25 10:13:32;;;;;;;9.27;4.28;;;;;;;;;;5032147;28;20045;-78
2022/04/25 10:15:58;;;;;;;8.82;4.57;;;;;;;;;;5033266;28;20045;-79
2022/04/25 10:18:26;;;;;;;12.88;4.65;;;;;;;;;;5025536;28;20021;-79
2022/04/25 10:20:52;;;;;;;6.57;4.45;;;;;;;;;;5034610;28;20104;-79
2022/04/25 10:23:18;;;;;;;8.80;4.10;;;;;;;;;;5033006;28;20500;-77
2022/04/25 10:25:51;;;;;;;6.13;3.72;;;;;;;;;;5030291;28;20037;-78
2022/04/25 10:28:33;;;;;;;11.50;4.13;;;;;;;;;;5008796;28;20029;-77
2022/04/25 10:31:02;;;;;;;8.48;4.00;;;;;;;;;;5008342;28;20037;-78
2022/04/25 10:33:47;;;;;;;6.43;4.50;;;;;;;;;;5008847;28;20069;-77
2022/04/25 10:36:33;;;;;;;9.05;4.63;;;;;;;;;;5003019;28;20029;-79
2022/04/25 10:39:12;;;;;;;8.30;4.22;;;;;;;;;;5027695;28;20030;-77
2022/04/25 10:44:23;;;;;;;9.30;3.60;;;;;;;;;;5000485;28;20093;-75
2022/04/25 10:47:08;;;;;;;7.95;4.05;;;;;;;;;;5005731;28;20065;-76
2022/04/25 10:49:35;;;;;;;7.18;3.58;;;;;;;;;;5009227;28;20030;-77
2022/04/25 10:52:01;;;;;;;11.77;3.25;;;;;;;;;;5009487;28;20426;-78
2022/04/25 10:54:28;;;;;;;9.57;4.30;;;;;;;;;;5004892;28;20402;-77
2022/04/25 10:57:17;;;;;;;6.60;3.72;;;;;;;;;;5005835;28;20462;-75
2022/04/25 10:59:43;;;;;;;14.20;8.48;;;;;;;;;;4999645;28;20090;-75
2022/04/25 11:02:20;;;;;;;9.27;5.07;;;;;;;;;;5009649;28;20033;-77
2022/04/25 11:04:46;;;;;;;6.70;3.53;;;;;;;;;;5008234;28;20104;-77
2022/04/25 11:07:24;;;;;;;10.32;4.03;;;;;;;;;;5003779;28;20030;-77
2022/04/25 11:09:50;;;;;;;10.63;3.25;;;;;;;;;;5011315;28;20474;-78
2022/04/25 11:12:17;;;;;;;10.80;3.10;;;;;;;;;;4995118;28;20057;-78
2022/04/25 11:14:57;;;;;;;5.63;3.10;;;;;;;;;;5008823;28;20062;-79
2022/04/25 11:17:23;;;;;;;7.80;3.47;;;;;;;;;;5010965;28;20366;-78
2022/04/25 11:19:59;;;;;;;3.80;2.92;;;;;;;;;;5012903;28;20025;-79
2022/04/25 11:22:29;;;;;;;6.72;3.35;;;;;;;;;;5005690;28;20018;-80
2022/04/25 11:24:55;;;;;;;7.10;3.33;;;;;;;;;;5011732;28;20389;-79
2022/04/25 11:27:22;;;;;;;6.28;3.13;;;;;;;;;;5020160;28;20053;-80
2022/04/25 11:30:11;;;;;;;6.25;3.60;;;;;;;;;;5003678;28;20045;-79
2022/04/25 11:32:37;;;;;;;10.80;3.70;;;;;;;;;;5000262;28;20064;-79
2022/04/25 11:35:04;;;;;;;7.57;3.40;;;;;;;;;;5011332;28;20041;-80
2022/04/25 11:37:32;;;;;;;10.27;3.28;;;;;;;;;;5000086;28;20487;-78
2022/04/25 11:39:59;;;;;;;11.30;3.60;;;;;;;;;;4990123;28;20037;-79
2022/04/25 11:42:29;;;;;;;8.93;3.17;;;;;;;;;;5000106;28;20049;-78
2022/04/25 11:44:55;;;;;;;4.78;2.80;;;;;;;;;;5011783;28;20482;-78
2022/04/25 11:47:22;;;;;;;9.27;3.67;;;;;;;;;;5009117;28;20036;-78
2022/04/25 11:49:55;;;;;;;6.90;3.13;;;;;;;;;;5008473;28;20484;-78
2022/04/25 11:52:22;;;;;;;8.88;3.65;;;;;;;;;;5012445;28;20030;-79
2022/04/25 11:54:49;;;;;;;8.38;3.15;;;;;;;;;;5012537;28;20057;-79
2022/04/25 11:57:15;;;;;;;7.15;3.70;;;;;;;;;;5013847;28;20034;-79
2022/04/25 11:59:41;;;;;;;5.32;2.90;;;;;;;;;;5015182;28;20034;-80
2022/04/25 12:02:07;;;;;;;6.85;3.58;;;;;;;;;;5008179;28;20386;-79
2022/04/25 12:04:34;;;;;;;9.82;3.80;;;;;;;;;;4998658;28;20033;-79
2022/04/25 12:07:01;;;;;;;6.25;3.08;;;;;;;;;;4998814;28;20486;-78
2022/04/25 12:17:52;;;;;;;9.27;4.03;;;;;;;;;;5012316;28;20429;-79
2022/04/25 12:20:20;;;;;;;4.70;3.65;;;;;;;;;;5001304;28;20034;-78
2022/04/25 12:22:52;;;;;;;7.88;3.90;;;;;;;;;;5009407;28;20044;-79
2022/04/25 12:25:21;;;;;;;14.98;5.00;;;;;;;;;;5012662;28;20037;-79
2022/04/25 12:28:00;;;;;;;11.40;4.47;;;;;;;;;;5014091;28;20064;-80
2022/04/25 12:30:28;;;;;;;9.45;3.97;;;;;;;;;;5020546;28;20172;-79
2022/04/25 12:33:10;;;;;;;11.02;4.93;;;;;;;;;;5031013;28;20029;-79
2022/04/25 12:35:36;;;;;;;10.48;4.55;;;;;;;;;;5034196;28;20025;-79
2022/04/25 12:38:06;;;;;;;8.85;4.32;;;;;;;;;;5008860;28;20034;-81
2022/04/25 12:40:32;;;;;;;10.88;4.60;;;;;;;;;;5024788;28;20041;-79
2022/04/25 12:42:58;;;;;;;13.02;4.72;;;;;;;;;;5039746;28;20044;-79
2022/04/25 12:45:24;;;;;;;6.63;4.15;;;;;;;;;;5049508;28;20057;-80
2022/04/25 12:47:57;;;;;;;18.67;3.92;;;;;;;;;;5020922;28;20037;-79
2022/04/25 12:50:42;;;;;;;9.00;3.72;;;;;;;;;;5051683;28;20057;-79
2022/04/25 12:53:09;;;;;;;9.57;3.38;;;;;;;;;;5040284;28;20048;-80
2022/04/25 12:55:46;;;;;;;11.00;3.97;;;;;;;;;;5027323;28;20523;-79
2022/04/25 12:58:12;;;;;;;9.10;4.80;;;;;;;;;;5031474;28;20083;-78
2022/04/25 13:00:42;;;;;;;10.93;5.68;;;;;;;;;;5033321;28;20041;-78
2022/04/25 13:03:09;;;;;;;7.85;4.97;;;;;;;;;;5028083;28;20486;-79
2022/04/25 13:05:35;;;;;;;12.02;4.90;;;;;;;;;;5033639;28;20045;-78
2022/04/25 13:08:01;;;;;;;9.05;5.00;;;;;;;;;;5033125;28;20445;-78
2022/04/25 13:10:27;;;;;;;8.70;4.15;;;;;;;;;;5028280;28;20030;-79
2022/04/25 13:12:54;;;;;;;7.32;4.20;;;;;;;;;;5034944;28;20025;-80
2022/04/25 13:15:29;;;;;;;10.55;4.10;;;;;;;;;;5024533;28;20029;-78
2022/04/25 13:17:55;;;;;;;8.43;3.83;;;;;;;;;;5034530;28;20033;-79
2022/04/25 13:20:22;;;;;;;8.13;3.97;;;;;;;;;;5030382;28;20041;-79
2022/04/25 13:22:48;;;;;;;10.13;4.07;;;;;;;;;;5033706;28;20059;-78
2022/04/25 13:25:15;;;;;;;8.80;3.92;;;;;;;;;;5033799;28;20041;-79
2022/04/25 13:27:42;;;;;;;9.95;5.20;;;;;;;;;;5034169;28;20572;-79
2022/04/25 13:30:09;;;;;;;9.55;4.65;;;;;;;;;;5031600;28;20025;-79
2022/04/25 13:32:35;;;;;;;6.25;3.67;;;;;;;;;;5033022;28;20025;-78
2022/04/25 13:35:02;;;;;;;8.52;4.03;;;;;;;;;;5033583;28;20041;-78
2022/04/25 13:37:31;;;;;;;11.57;4.68;;;;;;;;;;5033133;28;20025;-79
2022/04/25 13:39:57;;;;;;;8.70;3.88;;;;;;;;;;5027884;28;20037;-78
2022/04/25 13:42:24;;;;;;;9.68;4.40;;;;;;;;;;5036735;28;20029;-79
2022/04/25 13:44:51;;;;;;;9.43;4.35;;;;;;;;;;5040703;28;20326;-78
2022/04/25 13:47:17;;;;;;;11.15;4.25;;;;;;;;;;5034306;28;20026;-78
2022/04/25 13:49:43;;;;;;;10.35;4.40;;;;;;;;;;5024040;28;20033;-79
2022/04/25 13:52:10;;;;;;;7.00;3.75;;;;;;;;;;5033317;28;20089;-81
2022/04/25 13:54:36;;;;;;;7.43;4.00;;;;;;;;;;5023032;28;20022;-79
2022/04/25 13:57:03;;;;;;;7.90;4.15;;;;;;;;;;5023279;28;20029;-78
2022/04/25 13:59:29;;;;;;;8.38;4.10;;;;;;;;;;5030337;28;20040;-77
2022/04/25 14:01:55;;;;;;;10.35;4.35;;;;;;;;;;5002369;28;20041;-78
2022/04/25 14:04:21;;;;;;;9.90;3.63;;;;;;;;;;5029967;28;20357;-77
2022/04/25 14:06:47;;;;;;;8.82;4.80;;;;;;;;;;5025310;28;20072;-76
2022/04/25 14:09:13;;;;;;;16.23;9.25;;;;;;;;;;5020614;28;20080;-76
2022/04/25 14:11:39;;;;;;;14.35;5.07;;;;;;;;;;5015425;28;20124;-78
2022/04/25 14:14:06;;;;;;;8.30;4.15;;;;;;;;;;5026579;28;20043;-79
2022/04/25 14:16:32;;;;;;;8.40;4.13;;;;;;;;;;5029200;28;20470;-80
2022/04/25 14:18:58;;;;;;;8.13;4.05;;;;;;;;;;5031692;28;20038;-80
2022/04/25 14:21:24;;;;;;;6.97;4.10;;;;;;;;;;5029254;28;20056;-77
2022/04/25 14:23:51;;;;;;;12.40;4.32;;;;;;;;;;5019744;28;20034;-81
2022/04/25 14:26:17;;;;;;;8.60;4.32;;;;;;;;;;5015128;28;20139;-80
2022/04/25 14:28:44;;;;;;;8.73;4.38;;;;;;;;;;5001363;28;20029;-80
2022/04/25 14:31:11;;;;;;;6.07;4.05;;;;;;;;;;5013212;28;20041;-80
2022/04/25 14:33:37;;;;;;;8.20;4.43;;;;;;;;;;5013496;28;20355;-79
2022/04/25 14:36:03;;;;;;;10.20;4.53;;;;;;;;;;5005713;28;20022;-80
2022/04/25 14:38:30;;;;;;;9.80;4.55;;;;;;;;;;5028014;28;20030;-79
2022/04/25 14:40:56;;;;;;;8.13;4.78;;;;;;;;;;5013598;28;20121;-79
2022/04/25 14:43:22;;;;;;;8.27;4.30;;;;;;;;;;5033444;28;20434;-79
2022/04/25 14:45:49;;;;;;;10.15;5.07;;;;;;;;;;5020256;28;20049;-79
2022/04/25 14:48:16;;;;;;;10.02;4.55;;;;;;;;;;5009546;28;20023;-80
2022/04/25 14:56:12;;;;;;;9.13;4.82;;;;;;;;;;5013707;28;20072;-79
2022/04/25 14:58:38;;;;;;;7.75;4.60;;;;;;;;;;4991523;28;20133;-80
2022/04/25 15:01:04;;;;;;;10.90;4.22;;;;;;;;;;5010823;28;20026;-79
2022/04/25 15:03:30;;;;;;;6.95;5.07;;;;;;;;;;5016040;28;20034;-79
2022/04/25 15:05:57;;;;;;;9.48;3.90;;;;;;;;;;5017399;28;20042;-80
2022/04/25 15:08:23;;;;;;;9.32;4.45;;;;;;;;;;4997498;28;20030;-81
2022/04/25 15:10:49;;;;;;;8.52;3.90;;;;;;;;;;5012605;28;20092;-79
2022/04/25 15:13:15;;;;;;;8.43;4.30;;;;;;;;;;5010584;28;20501;-79
2022/04/25 15:15:42;;;;;;;8.65;4.30;;;;;;;;;;5014957;28;20383;-79